createdAt,value
2022-08-28T00:04:42.326Z,25.10
2022-08-28T00:09:45.305Z,25.00
2022-08-28T00:14:48.082Z,25.10
2022-08-28T00:19:52.145Z,25.20
2022-08-28T00:24:55.065Z,25.30
2022-08-28T00:29:59.204Z,25.20
2022-08-28T00:35:03.189Z,25.10
2022-08-28T00:40:06.374Z,24.90
2022-08-28T00:45:09.833Z,24.80
2022-08-28T00:50:17.896Z,24.70
2022-08-28T00:55:22.261Z,24.70
2022-08-28T01:00:26.940Z,24.70
2022-08-28T01:05:32.019Z,24.80
2022-08-28T01:10:35.185Z,24.70
2022-08-28T01:15:38.607Z,24.60
2022-08-28T01:20:44.635Z,24.50
2022-08-28T01:25:48.674Z,24.60
2022-08-28T01:30:51.395Z,24.40
2022-08-28T01:35:54.168Z,24.50
2022-08-28T01:40:59.084Z,24.50
2022-08-28T01:46:06.001Z,24.40
2022-08-28T01:51:08.843Z,24.30
2022-08-28T01:56:15.250Z,24.20
2022-08-28T02:01:19.863Z,24.20
2022-08-28T02:06:22.740Z,24.20
2022-08-28T02:11:26.978Z,24.20
2022-08-28T02:16:29.938Z,24.10
2022-08-28T02:21:32.621Z,24.10
2022-08-28T02:26:36.601Z,24.10
2022-08-28T02:31:39.418Z,24.00
2022-08-28T02:36:42.677Z,24.00
2022-08-28T02:41:46.666Z,24.00
2022-08-28T02:46:49.309Z,23.90
2022-08-28T02:51:52.262Z,24.00
2022-08-28T02:56:57.769Z,23.90
2022-08-28T03:02:03.965Z,23.90
2022-08-28T03:07:09.186Z,23.90
2022-08-28T03:12:16.921Z,23.80
2022-08-28T03:17:20.067Z,23.90
2022-08-28T03:22:42.831Z,23.90
2022-08-28T03:27:46.925Z,23.80
2022-08-28T03:32:49.810Z,23.70
2022-08-28T03:37:52.477Z,23.60
2022-08-28T03:42:56.479Z,23.60
2022-08-28T03:47:59.118Z,23.50
2022-08-28T03:53:01.909Z,23.60
2022-08-28T03:58:06.004Z,23.50
2022-08-28T04:03:08.834Z,23.40
2022-08-28T04:08:14.019Z,23.50
2022-08-28T04:13:19.748Z,23.50
2022-08-28T04:18:22.415Z,23.50
2022-08-28T04:23:25.260Z,23.60
2022-08-28T04:28:29.260Z,23.60
2022-08-28T04:33:32.798Z,23.60
2022-08-28T04:38:36.299Z,23.60
2022-08-28T04:43:43.259Z,23.50
2022-08-28T04:48:45.980Z,23.50
2022-08-28T04:53:48.831Z,23.40
2022-08-28T04:58:52.844Z,23.40
2022-08-28T05:03:57.435Z,23.40
2022-08-28T05:09:00.996Z,23.30
2022-08-28T05:14:06.298Z,23.30
2022-08-28T05:19:08.949Z,23.40
2022-08-28T05:24:12.574Z,23.40
2022-08-28T05:29:17.665Z,23.50
2022-08-28T05:34:20.868Z,23.50
2022-08-28T05:39:23.560Z,23.50
2022-08-28T05:44:27.534Z,23.60
2022-08-28T05:49:30.197Z,23.50
2022-08-28T05:54:32.900Z,23.70
2022-08-28T05:59:36.905Z,23.70
2022-08-28T06:04:40.503Z,23.70
2022-08-28T06:09:43.692Z,23.80
2022-08-28T06:14:47.954Z,23.70
2022-08-28T06:19:50.913Z,23.90
2022-08-28T06:24:53.865Z,23.90
2022-08-28T06:29:58.651Z,24.00
2022-08-28T06:35:01.301Z,24.00
2022-08-28T06:40:04.518Z,24.00
2022-08-28T06:45:09.417Z,24.00
2022-08-28T06:50:12.078Z,24.10
2022-08-28T06:55:14.777Z,24.10
2022-08-28T07:00:19.615Z,24.10
2022-08-28T07:05:22.495Z,24.20
2022-08-28T07:10:25.160Z,24.30
2022-08-28T07:15:29.237Z,24.40
2022-08-28T07:20:31.908Z,24.40
2022-08-28T07:25:34.598Z,24.40
2022-08-28T07:30:38.606Z,24.40
2022-08-28T07:35:44.066Z,24.40
2022-08-28T07:40:46.749Z,24.50
2022-08-28T07:45:57.857Z,24.50
2022-08-28T07:51:00.610Z,24.60
2022-08-28T07:56:03.667Z,24.60
2022-08-28T08:01:07.751Z,24.70
2022-08-28T08:06:10.660Z,24.60
2022-08-28T08:11:16.522Z,24.70
2022-08-28T08:16:22.459Z,24.70
2022-08-28T08:21:28.340Z,24.90
2022-08-28T08:26:33.294Z,24.90
2022-08-28T08:31:37.372Z,24.90
2022-08-28T08:36:46.757Z,24.90
2022-08-28T08:41:51.178Z,25.10
2022-08-28T08:46:58.399Z,25.00
2022-08-28T08:52:13.289Z,24.90
2022-08-28T08:57:16.354Z,24.90
2022-08-28T09:02:22.432Z,25.00
2022-08-28T09:07:37.901Z,25.10
2022-08-28T09:12:46.818Z,25.10
2022-08-28T09:17:53.689Z,25.20
2022-08-28T09:22:56.949Z,25.10
2022-08-28T09:28:06.378Z,25.20
2022-08-28T09:33:10.742Z,25.20
2022-08-28T09:38:18.634Z,25.20
2022-08-28T09:43:28.350Z,25.20
2022-08-28T09:48:34.199Z,25.30
2022-08-28T09:53:38.753Z,25.30
2022-08-28T09:58:43.678Z,25.30
2022-08-28T10:03:50.914Z,25.30
2022-08-28T10:09:06.969Z,25.40
2022-08-28T10:14:15.309Z,25.30
2022-08-28T10:19:25.841Z,25.40
2022-08-28T10:24:36.042Z,25.30
2022-08-28T10:29:45.470Z,25.40
2022-08-28T10:34:55.017Z,25.50
2022-08-28T10:39:59.001Z,25.50
2022-08-28T10:45:05.348Z,25.60
2022-08-28T10:50:12.718Z,25.60
2022-08-28T10:55:19.472Z,25.60
2022-08-28T11:00:23.133Z,25.60
2022-08-28T11:05:29.346Z,25.60
2022-08-28T11:10:45.822Z,25.70
2022-08-28T11:15:52.105Z,25.80
2022-08-28T11:20:58.513Z,25.80
2022-08-28T11:26:05.239Z,25.90
2022-08-28T11:31:37.848Z,25.80
2022-08-28T11:36:59.308Z,25.90
2022-08-28T11:42:29.429Z,25.90
2022-08-28T11:47:48.057Z,25.90
2022-08-28T11:53:17.617Z,26.00
2022-08-28T11:58:24.722Z,26.00
2022-08-28T12:03:31.276Z,25.90
2022-08-28T12:08:52.800Z,26.00
2022-08-28T12:13:56.790Z,26.10
2022-08-28T12:19:01.108Z,26.20
2022-08-28T12:24:09.850Z,26.20
2022-08-28T12:29:26.824Z,26.20
2022-08-28T12:34:39.320Z,26.20
2022-08-28T12:39:43.130Z,26.30
2022-08-28T12:44:47.437Z,26.30
2022-08-28T12:49:50.558Z,26.40
2022-08-28T12:54:55.148Z,26.40
2022-08-28T13:00:08.342Z,26.50
2022-08-28T13:05:12.706Z,26.50
2022-08-28T13:10:19.992Z,26.60
2022-08-28T13:15:41.358Z,26.50
2022-08-28T13:20:45.350Z,26.50
2022-08-28T13:25:48.446Z,26.60
2022-08-28T13:30:57.990Z,26.60
2022-08-28T13:36:19.734Z,26.60
2022-08-28T13:41:22.453Z,26.70
2022-08-28T13:46:25.192Z,26.70
2022-08-28T13:51:29.385Z,26.80
2022-08-28T13:56:32.738Z,26.70
2022-08-28T14:01:49.419Z,26.80
2022-08-28T14:06:54.751Z,26.80
2022-08-28T14:11:57.681Z,26.80
2022-08-28T14:17:01.277Z,26.80
2022-08-28T14:22:05.594Z,26.90
2022-08-28T14:27:08.247Z,26.90
2022-08-28T14:32:11.052Z,26.90
2022-08-28T14:37:15.525Z,27.00
2022-08-28T14:42:19.293Z,27.00
2022-08-28T14:47:22.038Z,27.00
2022-08-28T14:52:26.376Z,27.00
2022-08-28T14:57:29.251Z,27.10
2022-08-28T15:02:32.071Z,27.00
2022-08-28T15:07:36.054Z,27.10
2022-08-28T15:12:39.207Z,27.10
2022-08-28T15:17:45.398Z,27.10
2022-08-28T15:22:49.563Z,27.20
2022-08-28T15:27:52.213Z,27.20
2022-08-28T15:32:54.868Z,27.20
2022-08-28T15:37:58.889Z,27.30
2022-08-28T15:43:01.535Z,27.30
2022-08-28T15:48:04.565Z,27.30
2022-08-28T15:53:08.621Z,27.40
2022-08-28T15:58:14.310Z,27.50
2022-08-28T16:03:17.118Z,27.40
2022-08-28T16:08:21.870Z,27.50
2022-08-28T16:13:24.546Z,27.50
2022-08-28T16:18:27.263Z,27.50
2022-08-28T16:23:31.327Z,27.50
2022-08-28T16:28:35.286Z,27.50
2022-08-28T16:33:40.861Z,27.60
2022-08-28T16:38:46.358Z,27.60
2022-08-28T16:43:49.641Z,27.50
2022-08-28T16:48:52.966Z,27.60
2022-08-28T16:53:57.305Z,27.50
2022-08-28T16:59:00.140Z,27.60
2022-08-28T17:04:03.100Z,27.60
2022-08-28T17:09:07.184Z,27.80
2022-08-28T17:14:11.526Z,27.80
2022-08-28T17:19:15.598Z,27.70
2022-08-28T17:24:19.847Z,27.70
2022-08-28T17:29:22.505Z,27.70
2022-08-28T17:34:29.998Z,27.60
2022-08-28T17:39:34.379Z,27.60
2022-08-28T17:44:37.033Z,27.60
2022-08-28T17:49:40.254Z,27.50
2022-08-28T17:54:44.738Z,27.50
2022-08-28T17:59:47.778Z,27.50
2022-08-28T18:04:50.573Z,27.50
2022-08-28T18:09:55.363Z,27.50
2022-08-28T18:14:58.947Z,27.40
2022-08-28T18:20:01.657Z,27.40
2022-08-28T18:25:06.073Z,27.30
2022-08-28T18:30:09.433Z,27.40
2022-08-28T18:35:12.090Z,27.30
2022-08-28T18:40:16.800Z,27.20
2022-08-28T18:45:19.628Z,27.20
2022-08-28T18:50:22.816Z,27.10
2022-08-28T18:55:28.967Z,27.20
2022-08-28T19:00:33.735Z,27.10
2022-08-28T19:05:37.255Z,27.10
2022-08-28T19:10:41.809Z,26.90
2022-08-28T19:15:49.920Z,27.00
2022-08-28T19:20:52.660Z,27.00
2022-08-28T19:25:56.678Z,26.90
2022-08-28T19:30:59.429Z,26.90
2022-08-28T19:36:02.226Z,26.90
2022-08-28T19:41:07.916Z,26.80
2022-08-28T19:46:18.477Z,26.80
2022-08-28T19:51:24.230Z,26.70
2022-08-28T19:56:29.054Z,26.70
2022-08-28T20:01:33.254Z,26.70
2022-08-28T20:06:36.568Z,26.60
2022-08-28T20:11:41.040Z,26.50
2022-08-28T20:16:44.641Z,26.50
2022-08-28T20:21:48.993Z,26.50
2022-08-28T20:26:53.373Z,26.50
2022-08-28T20:31:56.065Z,26.40
2022-08-28T20:36:58.730Z,26.30
2022-08-28T20:42:02.748Z,26.40
2022-08-28T20:47:05.634Z,26.30
2022-08-28T20:52:08.317Z,26.10
2022-08-28T20:57:12.924Z,26.10
2022-08-28T21:02:17.767Z,26.10
2022-08-28T21:07:21.843Z,26.00
2022-08-28T21:12:25.930Z,26.00
2022-08-28T21:17:29.327Z,25.90
2022-08-28T21:22:35.932Z,25.80
2022-08-28T21:27:40.360Z,25.70
2022-08-28T21:32:43.075Z,25.70
2022-08-28T21:37:45.752Z,25.60
2022-08-28T21:42:49.836Z,25.70
2022-08-28T21:47:52.544Z,25.50
2022-08-28T21:52:55.271Z,25.50
2022-08-28T21:57:59.269Z,25.50
2022-08-28T22:03:01.990Z,25.50
2022-08-28T22:08:05.005Z,25.50
2022-08-28T22:13:10.773Z,25.30
2022-08-28T22:18:15.114Z,25.20
2022-08-28T22:23:17.946Z,25.20
2022-08-28T22:28:22.077Z,25.20
2022-08-28T22:33:26.349Z,25.10
2022-08-28T22:38:29.598Z,25.20
2022-08-28T22:43:34.252Z,25.20
2022-08-28T22:48:37.008Z,25.20
2022-08-28T22:53:41.023Z,25.10
2022-08-28T22:58:45.335Z,25.00
2022-08-28T23:03:48.434Z,25.00
2022-08-28T23:08:51.144Z,24.90
2022-08-28T23:13:55.141Z,24.90
2022-08-28T23:19:08.556Z,24.80
2022-08-28T23:24:11.869Z,24.80
2022-08-28T23:29:15.869Z,24.60
2022-08-28T23:34:18.506Z,24.70
2022-08-28T23:39:21.318Z,24.50
2022-08-28T23:44:25.373Z,24.60
2022-08-28T23:49:29.086Z,24.50
2022-08-28T23:54:31.777Z,24.40
2022-08-28T23:59:36.142Z,24.50
